createdAt,value
2019-05-13T00:00:07.591Z,103040.41
2019-05-13T00:02:08.976Z,103040.73
2019-05-13T00:04:10.369Z,103042.12
2019-05-13T00:06:13.374Z,103047.20
2019-05-13T00:08:14.988Z,103044.53
2019-05-13T00:10:16.394Z,103039.95
2019-05-13T00:12:17.928Z,103042.04
2019-05-13T00:14:19.333Z,103041.73
2019-05-13T00:16:20.758Z,103044.67
2019-05-13T00:18:23.551Z,103041.36
2019-05-13T00:20:25.063Z,103041.34
2019-05-13T00:22:26.433Z,103039.09
2019-05-13T00:24:27.872Z,103044.31
2019-05-13T00:26:29.287Z,103044.30
2019-05-13T00:28:30.687Z,103044.63
2019-05-13T00:30:34.305Z,103044.98
2019-05-13T00:32:35.393Z,103050.41
2019-05-13T00:34:36.876Z,103050.47
2019-05-13T00:36:38.322Z,103048.35
2019-05-13T00:38:39.692Z,103047.35
2019-05-13T00:40:41.291Z,103045.63
2019-05-13T00:42:44.059Z,103041.97
2019-05-13T00:44:45.795Z,103045.33
2019-05-13T00:46:47.166Z,103044.25
2019-05-13T00:48:48.604Z,103046.97
2019-05-13T00:50:49.994Z,103053.20
2019-05-13T00:52:53.465Z,103051.34
2019-05-13T00:54:54.997Z,103057.37
2019-05-13T00:56:56.386Z,103056.23
2019-05-13T00:58:57.751Z,103059.61
2019-05-13T01:00:59.169Z,103059.31
2019-05-13T01:03:00.558Z,103063.86
2019-05-13T01:05:04.742Z,103063.97
2019-05-13T01:07:06.160Z,103059.34
2019-05-13T01:09:07.548Z,103062.33
2019-05-13T01:11:08.934Z,103058.31
2019-05-13T01:13:10.358Z,103065.55
2019-05-13T01:15:13.470Z,103064.44
2019-05-13T01:17:15.195Z,103063.79
2019-05-13T01:19:16.585Z,103067.05
2019-05-13T01:21:17.973Z,103063.02
2019-05-13T01:23:19.413Z,103070.16
2019-05-13T01:25:20.796Z,103060.11
2019-05-13T01:27:37.572Z,103068.17
2019-05-13T01:29:39.003Z,103069.55
2019-05-13T01:31:40.492Z,103070.75
2019-05-13T01:33:44.325Z,103063.56
2019-05-13T01:35:45.240Z,103069.47
2019-05-13T01:37:46.647Z,103069.35
2019-05-13T01:39:48.063Z,103075.17
2019-05-13T01:41:49.440Z,103073.03
2019-05-13T01:43:50.828Z,103071.55
2019-05-13T01:45:53.698Z,103070.71
2019-05-13T01:47:55.320Z,103069.14
2019-05-13T01:49:56.693Z,103070.97
2019-05-13T01:51:58.126Z,103072.77
2019-05-13T01:53:59.556Z,103078.70
2019-05-13T01:56:00.961Z,103077.27
2019-05-13T01:58:04.320Z,103076.36
2019-05-13T02:00:06.392Z,103086.30
2019-05-13T02:02:07.819Z,103081.45
2019-05-13T02:04:09.229Z,103074.97
2019-05-13T02:06:10.618Z,103082.54
2019-05-13T02:08:14.300Z,103083.63
2019-05-13T02:10:17.640Z,103082.52
2019-05-13T02:12:19.036Z,103089.22
2019-05-13T02:14:20.455Z,103094.48
2019-05-13T02:16:24.262Z,103092.02
2019-05-13T02:18:25.165Z,103092.83
2019-05-13T02:20:26.554Z,103097.95
2019-05-13T02:22:27.942Z,103096.23
2019-05-13T02:24:29.362Z,103098.89
2019-05-13T02:26:30.739Z,103106.58
2019-05-13T02:28:33.431Z,103101.08
2019-05-13T02:30:35.214Z,103101.00
2019-05-13T02:32:36.614Z,103098.16
2019-05-13T02:34:38.022Z,103098.78
2019-05-13T02:36:39.397Z,103105.63
2019-05-13T02:38:42.671Z,103106.09
2019-05-13T02:40:44.280Z,103111.57
2019-05-13T02:42:45.727Z,103104.60
2019-05-13T02:44:47.073Z,103108.92
2019-05-13T02:46:48.462Z,103105.67
2019-05-13T02:48:52.752Z,103101.17
2019-05-13T02:50:54.779Z,103108.14
2019-05-13T02:52:56.366Z,103108.44
2019-05-13T02:54:57.828Z,103109.96
2019-05-13T02:56:59.275Z,103117.81
2019-05-13T02:59:03.915Z,103116.20
2019-05-13T03:01:04.031Z,103116.42
2019-05-13T03:03:05.546Z,103115.51
2019-05-13T03:05:07.950Z,103118.91
2019-05-13T03:07:11.824Z,103117.17
2019-05-13T03:09:13.099Z,103116.13
2019-05-13T03:11:14.611Z,103115.11
2019-05-13T03:13:15.975Z,103115.61
2019-05-13T03:15:17.363Z,103115.65
2019-05-13T03:17:39.055Z,103115.48
2019-05-13T03:19:43.286Z,103122.88
2019-05-13T03:21:44.140Z,103123.11
2019-05-13T03:23:45.549Z,103123.66
2019-05-13T03:25:46.969Z,103122.47
2019-05-13T03:27:48.373Z,103124.11
2019-05-13T03:29:53.087Z,103122.80
2019-05-13T03:31:55.531Z,103122.85
2019-05-13T03:33:56.808Z,103122.15
2019-05-13T03:35:58.474Z,103123.34
2019-05-13T03:38:03.336Z,103123.72
2019-05-13T03:40:04.601Z,103122.82
2019-05-13T03:42:12.325Z,103126.71
2019-05-13T03:44:17.342Z,103125.29
2019-05-13T03:46:22.729Z,103131.50
2019-05-13T03:48:24.387Z,103128.56
2019-05-13T03:50:30.233Z,103127.78
2019-05-13T03:52:29.081Z,103129.98
2019-05-13T03:54:32.761Z,103130.54
2019-05-13T03:56:34.856Z,103136.57
2019-05-13T03:58:36.291Z,103132.38
2019-05-13T04:00:37.741Z,103135.30
2019-05-13T04:02:42.578Z,103137.55
2019-05-13T04:04:42.691Z,103143.09
2019-05-13T04:06:44.067Z,103144.27
2019-05-13T04:08:45.442Z,103144.97
2019-05-13T04:10:46.842Z,103146.73
2019-05-13T04:12:48.273Z,103149.47
2019-05-13T04:14:52.648Z,103150.66
2019-05-13T04:16:53.550Z,103152.02
2019-05-13T04:18:55.107Z,103145.50
2019-05-13T04:20:56.591Z,103152.91
2019-05-13T04:22:58.229Z,103149.23
2019-05-13T04:25:02.448Z,103151.97
2019-05-13T04:27:03.427Z,103153.25
2019-05-13T04:29:05.095Z,103158.80
2019-05-13T04:31:06.605Z,103154.14
2019-05-13T04:33:08.389Z,103156.13
2019-05-13T04:35:12.396Z,103160.29
2019-05-13T04:37:13.585Z,103167.47
2019-05-13T04:39:15.102Z,103170.62
2019-05-13T04:41:16.513Z,103168.73
2019-05-13T04:43:18.233Z,103173.17
2019-05-13T04:45:25.524Z,103169.37
2019-05-13T04:47:26.906Z,103174.19
2019-05-13T04:49:28.324Z,103173.44
2019-05-13T04:51:32.929Z,103173.52
2019-05-13T04:53:33.792Z,103174.16
2019-05-13T04:55:35.180Z,103176.32
2019-05-13T04:57:36.557Z,103181.88
2019-05-13T04:59:41.341Z,103185.44
2019-05-13T05:02:16.709Z,103187.23
2019-05-13T05:04:34.814Z,103185.77
2019-05-13T05:06:52.561Z,103187.76
2019-05-13T05:09:29.242Z,103184.43
2019-05-13T05:11:52.933Z,103193.04
2019-05-13T05:14:25.855Z,103187.56
2019-05-13T05:16:47.465Z,103193.55
2019-05-13T05:19:14.056Z,103199.82
2019-05-13T05:21:24.062Z,103196.37
2019-05-13T05:24:02.018Z,103198.09
2019-05-13T05:26:31.367Z,103197.81
2019-05-13T05:28:52.782Z,103196.58
2019-05-13T05:31:11.668Z,103201.06
2019-05-13T05:34:11.440Z,103201.59
2019-05-13T05:37:08.424Z,103205.90
2019-05-13T05:39:22.700Z,103212.13
2019-05-13T05:41:28.301Z,103210.34
2019-05-13T05:43:32.135Z,103208.08
2019-05-13T05:45:35.410Z,103212.42
2019-05-13T05:47:38.888Z,103210.47
2019-05-13T05:49:43.101Z,103205.89
2019-05-13T05:51:47.010Z,103209.04
2019-05-13T05:53:51.686Z,103203.65
2019-05-13T05:55:55.173Z,103207.50
2019-05-13T05:57:56.696Z,103204.23
2019-05-13T05:59:59.157Z,103205.06
2019-05-13T06:02:02.203Z,103201.47
2019-05-13T06:04:03.779Z,103195.92
2019-05-13T06:06:05.827Z,103200.71
2019-05-13T06:08:07.324Z,103201.20
2019-05-13T06:10:11.432Z,103201.88
2019-05-13T06:12:13.957Z,103204.31
2019-05-13T06:14:15.359Z,103203.20
2019-05-13T06:16:16.866Z,103200.25
2019-05-13T06:18:18.443Z,103201.66
2019-05-13T06:20:21.119Z,103205.97
2019-05-13T06:22:22.773Z,103203.97
2019-05-13T06:24:26.763Z,103196.41
2019-05-13T06:26:27.639Z,103197.68
2019-05-13T06:28:29.067Z,103196.33
2019-05-13T06:30:32.580Z,103201.12
2019-05-13T06:32:34.022Z,103209.44
2019-05-13T06:34:36.132Z,103208.48
2019-05-13T06:36:37.712Z,103209.80
2019-05-13T06:38:39.151Z,103206.26
2019-05-13T06:40:42.453Z,103199.94
2019-05-13T06:42:43.796Z,103202.11
2019-05-13T06:44:45.199Z,103200.48
2019-05-13T06:46:46.572Z,103205.78
2019-05-13T06:48:47.982Z,103202.80
2019-05-13T06:50:51.925Z,103200.02
2019-05-13T06:52:52.671Z,103200.95
2019-05-13T06:54:54.157Z,103201.48
2019-05-13T06:56:55.565Z,103202.47
2019-05-13T06:58:56.941Z,103197.66
2019-05-13T07:00:58.918Z,103201.59
2019-05-13T07:03:02.261Z,103194.39
2019-05-13T07:05:06.019Z,103195.31
2019-05-13T07:07:13.134Z,103199.38
2019-05-13T07:09:12.022Z,103197.64
2019-05-13T07:11:20.392Z,103191.09
2019-05-13T07:13:17.495Z,103198.12
2019-05-13T07:15:18.917Z,103188.30
2019-05-13T07:17:22.328Z,103194.42
2019-05-13T07:19:23.975Z,103195.00
2019-05-13T07:21:25.550Z,103191.11
2019-05-13T07:23:26.937Z,103191.30
2019-05-13T07:25:28.316Z,103188.95
2019-05-13T07:27:31.776Z,103184.71
2019-05-13T07:29:32.994Z,103185.17
2019-05-13T07:31:34.554Z,103189.95
2019-05-13T07:33:36.022Z,103185.61
2019-05-13T07:35:38.308Z,103187.91
2019-05-13T07:37:42.355Z,103189.20
2019-05-13T07:39:44.518Z,103179.30
2019-05-13T07:41:45.897Z,103176.13
2019-05-13T07:43:47.292Z,103181.95
2019-05-13T07:45:51.260Z,103184.64
2019-05-13T07:47:52.203Z,103186.66
2019-05-13T07:49:53.682Z,103189.68
2019-05-13T07:51:55.276Z,103191.12
2019-05-13T07:53:56.745Z,103182.63
2019-05-13T07:55:58.112Z,103185.30
2019-05-13T07:58:01.860Z,103184.52
2019-05-13T08:00:06.201Z,103183.00
2019-05-13T08:02:07.645Z,103181.18
2019-05-13T08:04:21.052Z,103188.38
2019-05-13T08:06:12.276Z,103185.80
2019-05-13T08:08:13.704Z,103184.53
2019-05-13T08:10:15.167Z,103177.02
2019-05-13T08:12:47.425Z,103174.00
2019-05-13T08:14:48.893Z,103181.80
2019-05-13T08:16:51.825Z,103176.16
2019-05-13T08:18:53.434Z,103174.41
2019-05-13T08:20:54.833Z,103173.53
2019-05-13T08:22:56.259Z,103164.70
2019-05-13T08:24:57.678Z,103165.77
2019-05-13T08:27:02.164Z,103166.73
2019-05-13T08:29:05.812Z,103165.37
2019-05-13T08:31:06.239Z,103166.91
2019-05-13T08:33:07.638Z,103166.86
2019-05-13T08:35:11.856Z,103161.61
2019-05-13T08:37:12.707Z,103161.33
2019-05-13T08:39:14.237Z,103163.33
2019-05-13T08:41:19.572Z,103159.58
2019-05-13T08:43:18.968Z,103161.09
2019-05-13T08:45:22.402Z,103164.71
2019-05-13T08:47:24.074Z,103173.42
2019-05-13T08:49:26.037Z,103171.43
2019-05-13T08:51:31.148Z,103167.30
2019-05-13T08:53:31.784Z,103167.77
2019-05-13T08:55:33.300Z,103163.98
2019-05-13T08:57:34.788Z,103169.42
2019-05-13T08:59:36.179Z,103165.33
2019-05-13T09:01:37.581Z,103171.05
2019-05-13T09:03:41.532Z,103167.97
2019-05-13T09:05:42.517Z,103167.35
2019-05-13T09:07:43.977Z,103164.21
2019-05-13T09:09:45.389Z,103163.34
2019-05-13T09:11:46.796Z,103161.58
2019-05-13T09:13:48.301Z,103160.14
2019-05-13T09:15:51.707Z,103157.48
2019-05-13T09:17:52.945Z,103157.34
2019-05-13T09:19:54.347Z,103155.20
2019-05-13T09:21:55.717Z,103150.30
2019-05-13T09:23:57.119Z,103156.23
2019-05-13T09:25:58.717Z,103156.42
2019-05-13T09:28:02.594Z,103157.05
2019-05-13T09:30:05.632Z,103153.09
2019-05-13T09:32:07.000Z,103157.12
2019-05-13T09:34:08.404Z,103156.13
2019-05-13T09:36:12.356Z,103155.38
2019-05-13T09:38:13.148Z,103150.56
2019-05-13T09:40:14.719Z,103153.92
2019-05-13T09:42:16.086Z,103147.77
2019-05-13T09:44:17.508Z,103145.88
2019-05-13T09:46:18.886Z,103146.66
2019-05-13T09:48:22.495Z,103159.53
2019-05-13T09:50:29.422Z,103153.90
2019-05-13T09:52:26.855Z,103151.70
2019-05-13T09:54:28.270Z,103153.46
2019-05-13T09:56:31.974Z,103141.09
2019-05-13T09:58:33.362Z,103140.04
2019-05-13T10:00:35.048Z,103141.92
2019-05-13T10:02:36.447Z,103140.30
2019-05-13T10:04:37.855Z,103133.95
2019-05-13T10:06:41.688Z,103125.86
2019-05-13T10:08:42.583Z,103125.45
2019-05-13T10:10:43.951Z,103135.37
2019-05-13T10:12:45.329Z,103132.52
2019-05-13T10:14:46.731Z,103134.94
2019-05-13T10:16:48.102Z,103130.47
2019-05-13T10:18:49.509Z,103136.13
2019-05-13T10:20:58.782Z,103137.02
2019-05-13T10:23:01.698Z,103124.31
2019-05-13T10:25:06.713Z,103122.11
2019-05-13T10:27:08.283Z,103120.80
2019-05-13T10:29:11.895Z,103125.95
2019-05-13T10:31:13.269Z,103120.52
2019-05-13T10:33:15.138Z,103119.30
2019-05-13T10:35:16.768Z,103118.03
2019-05-13T10:37:18.278Z,103113.83
2019-05-13T10:39:22.178Z,103115.06
2019-05-13T10:41:23.120Z,103120.88
2019-05-13T10:43:31.451Z,103130.66
2019-05-13T10:45:27.871Z,103126.95
2019-05-13T10:47:29.288Z,103129.70
2019-05-13T10:49:33.130Z,103138.09
2019-05-13T10:51:34.669Z,103136.46
2019-05-13T10:53:36.490Z,103128.08
2019-05-13T10:55:37.915Z,103126.17
2019-05-13T10:57:41.878Z,103123.62
2019-05-13T10:59:42.592Z,103122.97
2019-05-13T11:01:44.299Z,103123.52
2019-05-13T11:03:45.735Z,103116.61
2019-05-13T11:05:47.704Z,103117.47
2019-05-13T11:07:51.296Z,103115.92
2019-05-13T11:09:52.910Z,103116.72
2019-05-13T11:11:54.465Z,103117.77
2019-05-13T11:13:59.382Z,103118.99
2019-05-13T11:16:01.932Z,103121.40
2019-05-13T11:18:03.647Z,103110.77
2019-05-13T11:20:06.220Z,103099.70
2019-05-13T11:22:07.721Z,103094.81
2019-05-13T11:24:12.251Z,103099.46
2019-05-13T11:26:13.035Z,103101.58
2019-05-13T11:28:14.777Z,103092.86
2019-05-13T11:30:16.444Z,103098.45
2019-05-13T11:32:17.823Z,103109.52
2019-05-13T11:34:21.573Z,103104.97
2019-05-13T11:36:23.700Z,103096.86
2019-05-13T11:38:25.454Z,103102.47
2019-05-13T11:40:26.829Z,103094.16
2019-05-13T11:42:28.198Z,103086.67
2019-05-13T11:44:31.986Z,103090.27
2019-05-13T11:46:33.463Z,103100.17
2019-05-13T11:48:34.970Z,103091.54
2019-05-13T11:50:36.389Z,103090.63
2019-05-13T11:52:37.761Z,103091.86
2019-05-13T11:54:42.235Z,103087.58
2019-05-13T11:56:49.391Z,103082.77
2019-05-13T11:58:45.727Z,103085.65
2019-05-13T12:00:53.091Z,103080.25
2019-05-13T12:02:55.064Z,103077.63
2019-05-13T12:04:56.431Z,103078.91
2019-05-13T12:06:57.846Z,103071.67
2019-05-13T12:09:02.778Z,103075.15
2019-05-13T12:11:04.316Z,103055.94
2019-05-13T12:13:06.105Z,103057.60
2019-05-13T12:15:38.114Z,103052.59
2019-05-13T12:17:14.219Z,103049.33
2019-05-13T12:19:14.362Z,103049.36
2019-05-13T12:21:15.805Z,103045.84
2019-05-13T12:23:17.179Z,103045.63
2019-05-13T12:25:18.582Z,103049.22
2019-05-13T12:27:19.956Z,103055.26
2019-05-13T12:29:21.333Z,103050.02
2019-05-13T12:31:22.734Z,103053.22
2019-05-13T12:33:24.110Z,103040.67
2019-05-13T12:35:25.552Z,103044.58
2019-05-13T12:37:26.955Z,103048.84
2019-05-13T12:39:28.316Z,103048.05
2019-05-13T12:41:32.984Z,103036.39
2019-05-13T12:43:33.036Z,103041.06
2019-05-13T12:45:34.415Z,103030.20
2019-05-13T12:47:36.146Z,103013.00
2019-05-13T12:49:37.522Z,103018.78
2019-05-13T12:51:38.883Z,103019.14
2019-05-13T12:53:43.554Z,103016.41
2019-05-13T12:55:43.577Z,103007.95
2019-05-13T12:57:45.366Z,103009.05
2019-05-13T12:59:46.778Z,103013.37
2019-05-13T13:01:48.157Z,103014.23
2019-05-13T13:03:49.830Z,103008.84
2019-05-13T13:05:51.236Z,102992.09
2019-05-13T13:08:16.614Z,102990.56
2019-05-13T13:09:55.931Z,102991.16
2019-05-13T13:11:57.341Z,102990.56
2019-05-13T13:14:04.062Z,102988.23
2019-05-13T13:16:03.773Z,102982.17
2019-05-13T13:18:05.601Z,102978.69
2019-05-13T13:20:09.713Z,102980.11
2019-05-13T13:22:13.192Z,102981.09
2019-05-13T13:24:14.206Z,102975.04
2019-05-13T13:26:16.418Z,102966.13
2019-05-13T13:28:18.035Z,102973.66
2019-05-13T13:30:19.840Z,102982.21
2019-05-13T13:32:24.666Z,102991.25
2019-05-13T13:34:26.055Z,102983.54
2019-05-13T13:36:27.895Z,102975.77
2019-05-13T13:38:32.463Z,102975.47
2019-05-13T13:40:35.221Z,102964.92
2019-05-13T13:42:35.843Z,102954.62
2019-05-13T13:44:37.249Z,102966.39
2019-05-13T13:46:48.168Z,102962.49
2019-05-13T13:48:43.685Z,102961.83
2019-05-13T13:50:45.252Z,102962.69
2019-05-13T13:52:46.620Z,102963.08
2019-05-13T13:54:58.175Z,102954.61
2019-05-13T13:56:56.009Z,102952.89
2019-05-13T13:58:54.956Z,102949.80
2019-05-13T14:01:07.147Z,102950.58
2019-05-13T14:03:06.018Z,102955.63
2019-05-13T14:05:05.570Z,102949.08
2019-05-13T14:07:22.561Z,102946.98
2019-05-13T14:09:12.054Z,102950.22
2019-05-13T14:11:13.678Z,102953.28
2019-05-13T14:13:15.050Z,102943.73
2019-05-13T14:15:16.631Z,102945.49
2019-05-13T14:17:18.041Z,102949.98
2019-05-13T14:19:21.675Z,102949.93
2019-05-13T14:21:22.803Z,102948.97
2019-05-13T14:23:24.176Z,102948.09
2019-05-13T14:25:25.561Z,102943.27
2019-05-13T14:27:26.962Z,102941.38
2019-05-13T14:29:38.503Z,102940.69
2019-05-13T14:31:32.390Z,102940.30
2019-05-13T14:33:35.631Z,102935.20
2019-05-13T14:35:37.321Z,102935.77
2019-05-13T14:37:38.682Z,102931.31
2019-05-13T14:39:40.093Z,102936.94
2019-05-13T14:41:42.561Z,102931.23
2019-05-13T14:43:44.326Z,102933.73
2019-05-13T14:45:45.729Z,102929.30
2019-05-13T14:47:47.131Z,102933.00
2019-05-13T14:49:48.492Z,102926.74
2019-05-13T14:51:52.266Z,102929.91
2019-05-13T14:53:53.481Z,102927.42
2019-05-13T14:55:54.855Z,102932.63
2019-05-13T14:57:56.264Z,102928.05
2019-05-13T14:59:57.649Z,102931.45
2019-05-13T15:02:01.147Z,102929.06
2019-05-13T15:04:03.003Z,102927.44
2019-05-13T15:06:04.513Z,102919.59
2019-05-13T15:08:05.922Z,102920.05
2019-05-13T15:10:07.797Z,102915.81
2019-05-13T15:12:09.523Z,102911.32
2019-05-13T15:14:11.616Z,102905.81
2019-05-13T15:16:13.340Z,102900.27
2019-05-13T15:18:14.948Z,102905.27
2019-05-13T15:20:16.823Z,102908.77
2019-05-13T15:22:18.276Z,102903.18
2019-05-13T15:24:21.315Z,102903.00
2019-05-13T15:26:23.381Z,102903.92
2019-05-13T15:28:24.772Z,102903.05
2019-05-13T15:30:26.146Z,102902.72
2019-05-13T15:32:27.514Z,102899.38
2019-05-13T15:34:28.928Z,102902.27
2019-05-13T15:36:31.567Z,102900.33
2019-05-13T15:38:33.328Z,102899.15
2019-05-13T15:40:34.697Z,102895.06
2019-05-13T15:42:36.104Z,102903.08
2019-05-13T15:44:37.779Z,102900.44
2019-05-13T15:46:41.166Z,102897.34
2019-05-13T15:48:42.474Z,102898.84
2019-05-13T15:50:43.854Z,102903.49
2019-05-13T15:52:45.222Z,102894.20
2019-05-13T15:54:46.644Z,102897.78
2019-05-13T15:56:48.014Z,102892.97
2019-05-13T15:58:49.384Z,102894.77
2019-05-13T16:00:52.379Z,102896.68
2019-05-13T16:02:54.089Z,102888.24
2019-05-13T16:05:01.195Z,102891.23
2019-05-13T16:07:01.459Z,102889.01
2019-05-13T16:09:05.580Z,102887.30
2019-05-13T16:11:06.944Z,102890.96
2019-05-13T16:13:08.347Z,102895.64
2019-05-13T16:15:15.563Z,102889.52
2019-05-13T16:17:14.656Z,102882.55
2019-05-13T16:19:16.016Z,102885.27
2019-05-13T16:21:17.815Z,102888.96
2019-05-13T16:23:21.280Z,102885.59
2019-05-13T16:25:22.460Z,102882.98
2019-05-13T16:27:24.169Z,102890.23
2019-05-13T16:29:25.537Z,102894.70
2019-05-13T16:31:26.911Z,102892.96
2019-05-13T16:33:28.312Z,102889.52
2019-05-13T16:35:31.912Z,102891.58
2019-05-13T16:37:33.003Z,102884.61
2019-05-13T16:39:34.375Z,102882.25
2019-05-13T16:41:36.052Z,102879.30
2019-05-13T16:43:37.460Z,102879.58
2019-05-13T16:45:38.839Z,102875.49
2019-05-13T16:47:55.886Z,102881.70
2019-05-13T16:49:43.726Z,102879.91
2019-05-13T16:51:45.202Z,102877.77
2019-05-13T16:53:46.616Z,102882.09
2019-05-13T16:55:47.987Z,102889.42
2019-05-13T16:57:51.162Z,102886.35
2019-05-13T16:59:52.663Z,102891.95
2019-05-13T17:01:54.133Z,102890.60
2019-05-13T17:03:55.581Z,102892.05
2019-05-13T17:05:56.952Z,102889.60
2019-05-13T17:07:58.418Z,102893.97
2019-05-13T17:10:01.102Z,102888.69
2019-05-13T17:12:03.293Z,102882.56
2019-05-13T17:14:05.863Z,102890.31
2019-05-13T17:16:07.478Z,102887.34
2019-05-13T17:18:12.261Z,102885.92
2019-05-13T17:20:12.860Z,102885.23
2019-05-13T17:22:14.332Z,102892.30
2019-05-13T17:24:15.769Z,102894.89
2019-05-13T17:26:17.144Z,102897.01
2019-05-13T17:28:18.557Z,102889.41
2019-05-13T17:30:21.972Z,102895.06
2019-05-13T17:32:23.549Z,102889.85
2019-05-13T17:34:25.149Z,102887.59
2019-05-13T17:36:26.578Z,102897.23
2019-05-13T17:38:27.950Z,102905.34
2019-05-13T17:40:31.349Z,102900.61
2019-05-13T17:42:32.652Z,102902.75
2019-05-13T17:44:52.429Z,102909.92
2019-05-13T17:46:53.809Z,102912.08
2019-05-13T17:48:55.215Z,102907.56
2019-05-13T17:50:56.591Z,102918.91
2019-05-13T17:52:57.972Z,102921.72
2019-05-13T17:55:01.128Z,102923.23
2019-05-13T17:57:02.662Z,102927.53
2019-05-13T17:59:04.040Z,102931.80
2019-05-13T18:01:05.629Z,102931.83
2019-05-13T18:03:07.006Z,102936.86
2019-05-13T18:05:12.059Z,102929.52
2019-05-13T18:07:13.806Z,102937.27
2019-05-13T18:09:15.214Z,102931.12
2019-05-13T18:11:16.592Z,102932.56
2019-05-13T18:13:17.964Z,102934.77
2019-05-13T18:15:19.378Z,102940.17
2019-05-13T18:17:21.565Z,102946.64
2019-05-13T18:19:25.783Z,102948.02
2019-05-13T18:21:26.491Z,102944.48
2019-05-13T18:23:27.967Z,102947.63
2019-05-13T18:25:31.553Z,102944.00
2019-05-13T18:27:32.658Z,102945.71
2019-05-13T18:29:34.085Z,102944.50
2019-05-13T18:31:35.456Z,102942.31
2019-05-13T18:33:36.896Z,102948.76
2019-05-13T18:35:38.300Z,102945.88
2019-05-13T18:37:41.800Z,102949.01
2019-05-13T18:39:43.001Z,102948.52
2019-05-13T18:41:44.374Z,102954.41
2019-05-13T18:43:45.791Z,102957.30
2019-05-13T18:45:47.164Z,102957.55
2019-05-13T18:47:48.536Z,102955.08
2019-05-13T18:49:50.725Z,102958.30
2019-05-13T18:51:52.096Z,102962.92
2019-05-13T18:53:53.501Z,102959.56
2019-05-13T18:55:54.901Z,102963.91
2019-05-13T18:57:56.263Z,102968.39
2019-05-13T18:59:57.640Z,102966.69
2019-05-13T19:02:01.050Z,102968.78
2019-05-13T19:04:02.410Z,102969.17
2019-05-13T19:06:03.813Z,102969.03
2019-05-13T19:08:05.413Z,102969.70
2019-05-13T19:10:07.483Z,102973.88
2019-05-13T19:12:11.400Z,102973.20
2019-05-13T19:14:12.458Z,102972.06
2019-05-13T19:16:14.008Z,102973.92
2019-05-13T19:18:15.388Z,102981.19
2019-05-13T19:20:17.354Z,102984.78
2019-05-13T19:22:20.835Z,102984.98
2019-05-13T19:24:22.071Z,102990.16
2019-05-13T19:26:23.446Z,102982.22
2019-05-13T19:28:24.825Z,102983.16
2019-05-13T19:30:26.223Z,102991.16
2019-05-13T19:32:27.624Z,102991.06
2019-05-13T19:34:29.011Z,102993.41
2019-05-13T19:36:30.375Z,102991.08
2019-05-13T19:38:32.108Z,102995.11
2019-05-13T19:40:33.710Z,102995.43
2019-05-13T19:42:35.075Z,102994.53
2019-05-13T19:44:36.483Z,102995.05
2019-05-13T19:46:37.957Z,102992.34
2019-05-13T19:48:41.564Z,102993.85
2019-05-13T19:50:42.658Z,102993.15
2019-05-13T19:52:44.027Z,102988.55
2019-05-13T19:54:45.395Z,102994.19
2019-05-13T19:56:46.809Z,102986.95
2019-05-13T19:58:48.236Z,102991.53
2019-05-13T20:00:51.463Z,102984.89
2019-05-13T20:02:52.963Z,102984.84
2019-05-13T20:04:54.379Z,102985.75
2019-05-13T20:06:55.839Z,102990.38
2019-05-13T20:08:57.248Z,102991.06
2019-05-13T20:10:59.165Z,102991.66
2019-05-13T20:13:06.362Z,102991.53
2019-05-13T20:15:08.171Z,102990.31
2019-05-13T20:17:09.560Z,102989.44
2019-05-13T20:19:11.825Z,102990.59
2019-05-13T20:21:13.674Z,102989.77
2019-05-13T20:23:15.153Z,102985.63
2019-05-13T20:25:16.683Z,102985.73
2019-05-13T20:27:18.107Z,102987.11
2019-05-13T20:29:19.518Z,102988.45
2019-05-13T20:31:21.661Z,102990.66
2019-05-13T20:33:23.273Z,102980.30
2019-05-13T20:35:24.676Z,102985.06
2019-05-13T20:37:26.080Z,102984.80
2019-05-13T20:39:27.494Z,102985.29
2019-05-13T20:41:28.909Z,102993.73
2019-05-13T20:43:32.556Z,102992.66
2019-05-13T20:45:34.588Z,102994.07
2019-05-13T20:47:35.994Z,102989.42
2019-05-13T20:49:37.369Z,102992.04
2019-05-13T20:51:41.048Z,102995.58
2019-05-13T20:53:42.409Z,102998.77
2019-05-13T20:55:43.807Z,102998.27
2019-05-13T20:57:45.178Z,102996.83
2019-05-13T20:59:46.589Z,103008.89
2019-05-13T21:01:48.004Z,103004.88
2019-05-13T21:03:51.573Z,103003.55
2019-05-13T21:05:52.722Z,103004.05
2019-05-13T21:07:54.357Z,103008.63
2019-05-13T21:09:55.796Z,103006.09
2019-05-13T21:11:57.348Z,103004.31
2019-05-13T21:14:01.042Z,103002.28
2019-05-13T21:16:02.455Z,103001.34
2019-05-13T21:18:04.064Z,103002.59
2019-05-13T21:20:18.710Z,103002.73
2019-05-13T21:22:11.727Z,103013.60
2019-05-13T21:24:12.731Z,103008.96
2019-05-13T21:26:15.663Z,103006.66
2019-05-13T21:28:17.330Z,103006.28
2019-05-13T21:30:18.810Z,103004.77
2019-05-13T21:32:21.380Z,103008.64
2019-05-13T21:34:22.947Z,103013.33
2019-05-13T21:36:24.321Z,103008.91
2019-05-13T21:38:25.707Z,103010.84
2019-05-13T21:40:27.084Z,103008.77
2019-05-13T21:42:28.461Z,103009.65
2019-05-13T21:44:29.882Z,103008.27
2019-05-13T21:46:31.293Z,103010.84
2019-05-13T21:48:32.762Z,103009.45
2019-05-13T21:50:37.288Z,103013.39
2019-05-13T21:52:37.889Z,103014.28
2019-05-13T21:54:39.291Z,103008.78
2019-05-13T21:56:42.669Z,103009.33
2019-05-13T21:58:44.002Z,103004.27
2019-05-13T22:00:46.279Z,103006.73
2019-05-13T22:02:47.712Z,103007.03
2019-05-13T22:04:49.092Z,103011.66
2019-05-13T22:06:50.500Z,103015.78
2019-05-13T22:08:51.990Z,103020.36
2019-05-13T22:10:53.412Z,103018.23
2019-05-13T22:12:54.820Z,103017.89
2019-05-13T22:14:56.190Z,103020.37
2019-05-13T22:16:57.602Z,103022.51
2019-05-13T22:19:01.410Z,103021.95
2019-05-13T22:21:02.605Z,103020.08
2019-05-13T22:23:03.975Z,103028.38
2019-05-13T22:25:06.004Z,103021.84
2019-05-13T22:27:10.246Z,103021.66
2019-05-13T22:29:10.660Z,103019.31
2019-05-13T22:31:12.079Z,103017.53
2019-05-13T22:33:13.493Z,103018.90
2019-05-13T22:35:14.860Z,103013.72
2019-05-13T22:37:16.237Z,103020.42
2019-05-13T22:39:17.641Z,103020.48
2019-05-13T22:41:19.015Z,103020.96
2019-05-13T22:43:21.230Z,103018.33
2019-05-13T22:45:22.838Z,103022.38
2019-05-13T22:47:24.204Z,103023.78
2019-05-13T22:49:25.613Z,103019.05
2019-05-13T22:51:26.983Z,103027.25
2019-05-13T22:53:28.391Z,103021.34
2019-05-13T22:55:31.270Z,103020.41
2019-05-13T22:57:32.745Z,103024.05
2019-05-13T22:59:34.155Z,103021.48
2019-05-13T23:01:35.528Z,103023.72
2019-05-13T23:03:36.910Z,103026.58
2019-05-13T23:05:38.305Z,103024.15
2019-05-13T23:07:39.734Z,103018.94
2019-05-13T23:09:41.691Z,103023.75
2019-05-13T23:11:43.175Z,103021.73
2019-05-13T23:13:44.585Z,103021.33
2019-05-13T23:15:45.952Z,103018.05
2019-05-13T23:17:48.624Z,103009.33
2019-05-13T23:19:52.271Z,103007.72